createdAt,value
2018-01-17T00:01:30.600Z,93.58
2018-01-17T00:03:56.606Z,94.49
2018-01-17T00:06:22.638Z,94.69
2018-01-17T00:08:48.676Z,95.11
2018-01-17T00:11:14.702Z,95.52
2018-01-17T00:13:40.732Z,95.98
2018-01-17T00:16:06.768Z,95.71
2018-01-17T00:18:32.816Z,95.41
2018-01-17T00:20:58.824Z,94.91
2018-01-17T00:23:24.842Z,95.24
2018-01-17T00:25:50.891Z,95.43
2018-01-17T00:28:16.916Z,95.92
2018-01-17T00:30:42.905Z,96.85
2018-01-17T00:33:08.952Z,96.88
2018-01-17T00:35:34.972Z,96.78
2018-01-17T00:38:01.026Z,96.81
2018-01-17T00:40:27.088Z,96.70
2018-01-17T00:42:53.104Z,96.75
2018-01-17T00:45:19.156Z,96.70
2018-01-17T00:47:45.132Z,96.65
2018-01-17T00:50:11.189Z,96.71
2018-01-17T00:52:37.203Z,96.71
2018-01-17T00:55:03.205Z,96.85
2018-01-17T00:57:29.289Z,96.89
2018-01-17T00:59:55.309Z,96.83
2018-01-17T01:02:21.355Z,96.97
2018-01-17T01:04:47.357Z,97.13
2018-01-17T01:07:13.456Z,96.74
2018-01-17T01:09:39.460Z,96.08
2018-01-17T01:12:05.452Z,96.00
2018-01-17T01:14:31.473Z,96.25
2018-01-17T01:16:57.532Z,95.81
2018-01-17T01:19:23.540Z,94.75
2018-01-17T01:21:49.668Z,93.77
2018-01-17T01:24:15.716Z,93.03
2018-01-17T01:26:41.776Z,92.69
2018-01-17T01:29:07.800Z,92.36
2018-01-17T01:31:33.819Z,92.49
2018-01-17T01:33:59.828Z,93.37
2018-01-17T01:36:25.909Z,92.55
2018-01-17T01:38:51.908Z,91.94
2018-01-17T01:41:18.004Z,91.84
2018-01-17T01:43:44.039Z,91.57
2018-01-17T01:46:10.032Z,92.20
2018-01-17T01:48:36.072Z,93.71
2018-01-17T01:51:02.034Z,94.44
2018-01-17T01:53:28.149Z,94.92
2018-01-17T01:55:54.092Z,95.37
2018-01-17T01:58:20.093Z,95.57
2018-01-17T02:00:46.140Z,95.75
2018-01-17T02:03:12.130Z,95.95
2018-01-17T02:05:38.184Z,96.31
2018-01-17T02:08:04.192Z,96.73
2018-01-17T02:10:30.225Z,96.64
2018-01-17T02:12:56.240Z,97.24
2018-01-17T02:15:22.256Z,97.56
2018-01-17T02:17:48.225Z,97.97
2018-01-17T02:20:21.236Z,98.10
2018-01-17T02:22:47.261Z,98.06
2018-01-17T02:25:13.241Z,97.65
2018-01-17T02:27:39.235Z,97.04
2018-01-17T02:30:05.320Z,97.14
2018-01-17T02:32:31.321Z,97.20
2018-01-17T02:34:57.342Z,97.12
2018-01-17T02:37:23.357Z,97.11
2018-01-17T02:40:01.681Z,96.55
2018-01-17T02:42:27.686Z,96.55
2018-01-17T02:44:53.989Z,96.35
2018-01-17T02:47:20.036Z,96.14
2018-01-17T02:49:46.098Z,96.01
2018-01-17T02:52:12.159Z,95.54
2018-01-17T02:54:38.156Z,95.12
2018-01-17T02:57:04.205Z,94.61
2018-01-17T02:59:30.274Z,94.89
2018-01-17T03:01:56.292Z,95.51
2018-01-17T03:04:22.269Z,95.50
2018-01-17T03:06:48.318Z,95.05
2018-01-17T03:09:14.348Z,94.83
2018-01-17T03:11:40.449Z,94.78
2018-01-17T03:14:06.473Z,94.77
2018-01-17T03:16:32.501Z,95.31
2018-01-17T03:18:58.599Z,95.65
2018-01-17T03:21:24.674Z,95.53
2018-01-17T03:23:50.653Z,95.93
2018-01-17T03:26:16.676Z,95.60
2018-01-17T03:28:42.698Z,95.61
2018-01-17T03:31:08.741Z,95.60
2018-01-17T03:33:34.727Z,95.47
2018-01-17T03:36:00.768Z,95.46
2018-01-17T03:38:26.824Z,95.55
2018-01-17T03:40:52.842Z,96.11
2018-01-17T03:43:18.860Z,96.31
2018-01-17T03:45:44.963Z,96.35
2018-01-17T03:48:10.944Z,96.07
2018-01-17T03:50:36.985Z,95.80
2018-01-17T03:53:03.058Z,95.66
2018-01-17T03:55:29.079Z,95.63
2018-01-17T03:57:55.101Z,95.70
2018-01-17T04:00:21.465Z,95.75
2018-01-17T04:02:47.484Z,95.65
2018-01-17T04:05:13.521Z,95.66
2018-01-17T04:07:39.522Z,95.71
2018-01-17T04:10:05.549Z,95.88
2018-01-17T04:12:31.916Z,95.81
2018-01-17T04:14:57.936Z,96.00
2018-01-17T04:17:23.900Z,96.02
2018-01-17T04:19:49.896Z,96.24
2018-01-17T04:22:15.885Z,96.17
2018-01-17T04:24:41.926Z,95.89
2018-01-17T04:27:07.947Z,96.08
2018-01-17T04:29:34.305Z,95.86
2018-01-17T04:32:00.313Z,96.06
2018-01-17T04:34:26.404Z,96.17
2018-01-17T04:36:52.385Z,95.99
2018-01-17T04:39:18.390Z,95.82
2018-01-17T04:41:44.442Z,95.90
2018-01-17T04:44:10.544Z,95.95
2018-01-17T04:46:36.575Z,96.41
2018-01-17T04:49:02.613Z,96.62
2018-01-17T04:51:28.612Z,96.95
2018-01-17T04:53:54.616Z,96.92
2018-01-17T04:56:20.680Z,96.97
2018-01-17T04:58:46.812Z,96.78
2018-01-17T05:01:12.905Z,97.00
2018-01-17T05:03:38.909Z,96.94
2018-01-17T05:06:04.899Z,96.38
2018-01-17T05:08:30.929Z,96.13
2018-01-17T05:10:56.937Z,96.03
2018-01-17T05:13:22.968Z,96.03
2018-01-17T05:15:49.002Z,95.91
2018-01-17T05:18:15.025Z,95.90
2018-01-17T05:20:41.072Z,96.22
2018-01-17T05:23:07.139Z,95.76
2018-01-17T05:25:33.150Z,95.63
2018-01-17T05:27:59.196Z,95.16
2018-01-17T05:30:25.226Z,94.80
2018-01-17T05:32:51.229Z,95.02
2018-01-17T05:35:17.253Z,95.21
2018-01-17T05:37:43.284Z,94.47
2018-01-17T05:40:09.248Z,93.65
2018-01-17T05:42:35.261Z,94.00
2018-01-17T05:45:01.294Z,94.58
2018-01-17T05:47:27.361Z,94.49
2018-01-17T05:49:53.373Z,94.19
2018-01-17T05:52:19.380Z,94.23
2018-01-17T05:54:45.416Z,94.87
2018-01-17T05:57:11.448Z,95.13
2018-01-17T05:59:37.504Z,94.45
2018-01-17T06:02:03.584Z,94.21
2018-01-17T06:04:29.632Z,94.55
2018-01-17T06:06:55.661Z,94.59
2018-01-17T06:09:21.731Z,94.70
2018-01-17T06:11:47.768Z,94.44
2018-01-17T06:14:13.828Z,94.29
2018-01-17T06:16:39.849Z,93.35
2018-01-17T06:19:06.012Z,93.57
2018-01-17T06:21:32.073Z,94.11
2018-01-17T06:23:58.120Z,93.43
2018-01-17T06:26:24.177Z,94.15
2018-01-17T06:28:50.215Z,93.92
2018-01-17T06:31:16.305Z,93.93
2018-01-17T06:33:42.324Z,94.40
2018-01-17T06:36:08.352Z,94.76
2018-01-17T06:38:34.376Z,94.94
2018-01-17T06:41:00.425Z,95.88
2018-01-17T06:43:26.457Z,95.73
2018-01-17T06:45:52.528Z,95.73
2018-01-17T06:48:18.676Z,95.40
2018-01-17T06:50:44.698Z,94.82
2018-01-17T06:53:10.745Z,94.95
2018-01-17T06:55:36.887Z,95.12
2018-01-17T06:58:02.892Z,94.82
2018-01-17T07:00:28.901Z,94.21
2018-01-17T07:02:54.929Z,93.62
2018-01-17T07:05:21.022Z,92.38
2018-01-17T07:07:47.079Z,92.80
2018-01-17T07:10:13.152Z,95.14
2018-01-17T07:12:39.232Z,94.49
2018-01-17T07:15:05.236Z,94.79
2018-01-17T07:17:31.236Z,94.91
2018-01-17T07:19:57.232Z,94.62
2018-01-17T07:22:23.292Z,93.63
2018-01-17T07:24:49.311Z,92.69
2018-01-17T07:27:15.316Z,91.24
2018-01-17T07:29:41.349Z,92.08
2018-01-17T07:32:07.348Z,92.71
2018-01-17T07:34:33.388Z,92.64
2018-01-17T07:36:59.404Z,92.48
2018-01-17T07:39:25.459Z,93.11
2018-01-17T07:41:51.516Z,92.75
2018-01-17T07:44:17.537Z,93.15
2018-01-17T07:46:43.579Z,93.24
2018-01-17T07:49:09.616Z,92.34
2018-01-17T07:51:35.704Z,91.93
2018-01-17T07:54:01.709Z,92.38
2018-01-17T07:56:27.733Z,92.48
2018-01-17T07:58:53.749Z,92.55
2018-01-17T08:01:19.764Z,92.52
2018-01-17T08:03:45.818Z,92.44
2018-01-17T08:06:11.852Z,91.16
2018-01-17T08:08:37.871Z,91.11
2018-01-17T08:11:03.911Z,90.20
2018-01-17T08:13:29.929Z,88.87
2018-01-17T08:15:56.008Z,89.01
2018-01-17T08:18:22.028Z,88.91
2018-01-17T08:20:48.095Z,87.75
2018-01-17T08:23:14.137Z,88.31
2018-01-17T08:25:40.161Z,88.19
2018-01-17T08:28:12.986Z,88.17
2018-01-17T08:30:38.945Z,87.16
2018-01-17T08:33:05.014Z,87.20
2018-01-17T08:35:31.041Z,88.67
2018-01-17T08:37:57.045Z,86.93
2018-01-17T08:40:23.068Z,87.50
2018-01-17T08:42:49.072Z,87.03
2018-01-17T08:45:15.117Z,87.50
2018-01-17T08:47:41.157Z,87.48
2018-01-17T08:50:07.116Z,87.53
2018-01-17T08:52:33.167Z,87.86
2018-01-17T08:54:59.175Z,88.78
2018-01-17T08:57:25.228Z,88.01
2018-01-17T08:59:51.205Z,87.98
2018-01-17T09:02:17.319Z,88.17
2018-01-17T09:04:43.361Z,88.12
2018-01-17T09:07:09.689Z,87.92
2018-01-17T09:09:35.724Z,87.05
2018-01-17T09:12:01.800Z,88.88
2018-01-17T09:14:27.810Z,87.47
2018-01-17T09:16:53.871Z,87.23
2018-01-17T09:19:19.896Z,87.99
2018-01-17T09:21:45.947Z,88.62
2018-01-17T09:24:11.943Z,88.41
2018-01-17T09:26:37.989Z,88.81
2018-01-17T09:29:04.033Z,90.58
2018-01-17T09:31:30.045Z,93.23
2018-01-17T09:33:56.117Z,93.41
2018-01-17T09:36:22.116Z,93.05
2018-01-17T09:38:48.144Z,92.92
2018-01-17T09:41:14.200Z,92.23
2018-01-17T09:43:40.254Z,91.44
2018-01-17T09:46:06.288Z,91.16
2018-01-17T09:48:32.352Z,90.37
2018-01-17T09:50:58.382Z,88.63
2018-01-17T09:53:24.436Z,89.09
2018-01-17T09:55:50.456Z,88.99
2018-01-17T09:58:16.568Z,89.80
2018-01-17T10:00:42.552Z,89.38
2018-01-17T10:03:08.584Z,90.49
2018-01-17T10:05:34.637Z,90.60
2018-01-17T10:08:00.723Z,91.08
2018-01-17T10:10:26.756Z,91.77
2018-01-17T10:12:52.760Z,91.73
2018-01-17T10:15:18.860Z,91.54
2018-01-17T10:17:44.870Z,92.33
2018-01-17T10:20:10.890Z,92.51
2018-01-17T10:22:36.900Z,91.60
2018-01-17T10:25:03.295Z,90.41
2018-01-17T10:27:29.327Z,89.53
2018-01-17T10:29:55.348Z,89.28
2018-01-17T10:32:21.400Z,88.21
2018-01-17T10:34:47.448Z,86.76
2018-01-17T10:37:13.486Z,86.29
2018-01-17T10:39:39.589Z,86.92
2018-01-17T10:42:05.623Z,87.17
2018-01-17T10:44:31.699Z,86.50
2018-01-17T10:46:57.654Z,86.73
2018-01-17T10:49:23.705Z,87.33
2018-01-17T10:51:49.720Z,87.63
2018-01-17T10:54:15.730Z,87.07
2018-01-17T10:56:41.765Z,86.02
2018-01-17T10:59:07.753Z,85.40
2018-01-17T11:01:33.863Z,85.12
2018-01-17T11:03:59.948Z,83.86
2018-01-17T11:06:25.905Z,84.82
2018-01-17T11:08:52.021Z,83.91
2018-01-17T11:11:18.120Z,83.73
2018-01-17T11:13:44.221Z,84.94
2018-01-17T11:16:10.232Z,84.13
2018-01-17T11:18:36.284Z,83.77
2018-01-17T11:21:02.365Z,84.52
2018-01-17T11:23:28.406Z,85.59
2018-01-17T11:25:54.493Z,83.87
2018-01-17T11:28:20.485Z,84.80
2018-01-17T11:30:46.537Z,83.87
2018-01-17T11:33:12.598Z,83.88
2018-01-17T11:35:38.613Z,84.15
2018-01-17T11:38:04.624Z,83.05
2018-01-17T11:40:30.668Z,84.38
2018-01-17T11:42:56.703Z,83.74
2018-01-17T11:45:22.713Z,83.44
2018-01-17T11:47:48.832Z,82.97
2018-01-17T11:50:14.985Z,84.32
2018-01-17T11:52:40.996Z,84.47
2018-01-17T11:55:07.013Z,83.33
2018-01-17T11:57:33.084Z,83.42
2018-01-17T11:59:59.097Z,82.71
2018-01-17T12:02:25.074Z,83.15
2018-01-17T12:04:51.143Z,84.13
2018-01-17T12:07:17.146Z,83.90
2018-01-17T12:09:43.167Z,81.84
2018-01-17T12:12:09.292Z,82.15
2018-01-17T12:14:35.308Z,82.23
2018-01-17T12:17:01.368Z,81.31
2018-01-17T12:19:27.329Z,80.53
2018-01-17T12:21:53.317Z,80.70
2018-01-17T12:24:19.302Z,81.91
2018-01-17T12:26:45.369Z,80.75
2018-01-17T12:29:11.397Z,82.30
2018-01-17T12:31:37.422Z,81.61
2018-01-17T12:34:03.460Z,83.01
2018-01-17T12:36:29.489Z,85.21
2018-01-17T12:38:55.533Z,87.46
2018-01-17T12:41:21.569Z,90.63
2018-01-17T12:43:47.573Z,93.21
2018-01-17T12:46:13.577Z,93.12
2018-01-17T12:48:39.609Z,92.56
2018-01-17T12:51:05.648Z,93.27
2018-01-17T12:53:31.709Z,92.83
2018-01-17T12:55:57.735Z,93.07
2018-01-17T12:58:23.757Z,93.41
2018-01-17T13:00:49.775Z,93.05
2018-01-17T13:03:15.800Z,93.30
2018-01-17T13:05:41.844Z,92.93
2018-01-17T13:08:07.865Z,92.64
2018-01-17T13:10:33.890Z,92.73
2018-01-17T13:12:59.928Z,92.21
2018-01-17T13:15:25.947Z,88.55
2018-01-17T13:17:51.960Z,86.74
2018-01-17T13:20:18.017Z,85.21
2018-01-17T13:22:44.109Z,83.02
2018-01-17T13:25:10.095Z,81.01
2018-01-17T13:27:36.169Z,81.74
2018-01-17T13:30:02.543Z,80.84
2018-01-17T13:32:28.608Z,81.49
2018-01-17T13:34:54.716Z,81.62
2018-01-17T13:37:20.656Z,81.76
2018-01-17T13:39:46.748Z,82.72
2018-01-17T13:42:12.880Z,80.31
2018-01-17T13:44:38.884Z,79.88
2018-01-17T13:47:04.957Z,82.19
2018-01-17T13:49:31.022Z,81.59
2018-01-17T13:51:57.069Z,82.57
2018-01-17T13:54:23.179Z,82.96
2018-01-17T13:56:49.169Z,81.08
2018-01-17T13:59:15.195Z,83.00
2018-01-17T14:01:41.265Z,81.93
2018-01-17T14:04:07.327Z,82.92
2018-01-17T14:06:33.348Z,82.69
2018-01-17T14:08:59.335Z,82.67
2018-01-17T14:11:25.380Z,80.76
2018-01-17T14:13:51.377Z,75.95
2018-01-17T14:16:17.409Z,77.41
2018-01-17T14:18:43.481Z,79.13
2018-01-17T14:21:09.501Z,79.65
2018-01-17T14:23:35.557Z,79.91
2018-01-17T14:26:01.608Z,80.47
2018-01-17T14:28:27.676Z,81.20
2018-01-17T14:30:53.728Z,82.51
2018-01-17T14:33:19.751Z,84.07
2018-01-17T14:35:45.792Z,83.52
2018-01-17T14:38:11.813Z,84.19
2018-01-17T14:40:37.929Z,84.51
2018-01-17T14:43:09.912Z,85.27
2018-01-17T14:45:35.925Z,86.60
2018-01-17T14:48:01.985Z,87.78
2018-01-17T14:50:28.116Z,88.65
2018-01-17T14:52:54.133Z,89.27
2018-01-17T14:55:20.176Z,89.86
2018-01-17T14:57:46.182Z,90.01
2018-01-17T15:00:15.194Z,89.87
2018-01-17T15:02:41.263Z,90.35
2018-01-17T15:05:07.298Z,90.76
2018-01-17T15:07:33.337Z,91.37
2018-01-17T15:09:59.345Z,91.10
2018-01-17T15:12:25.382Z,91.19
2018-01-17T15:14:51.413Z,90.68
2018-01-17T15:17:17.526Z,90.00
2018-01-17T15:19:43.584Z,89.96
2018-01-17T15:22:09.648Z,89.95
2018-01-17T15:24:35.699Z,89.05
2018-01-17T15:27:01.749Z,89.20
2018-01-17T15:29:27.852Z,88.85
2018-01-17T15:31:54.344Z,88.81
2018-01-17T15:34:20.364Z,88.80
2018-01-17T15:36:46.461Z,88.62
2018-01-17T15:39:12.488Z,91.42
2018-01-17T15:41:38.532Z,88.25
2018-01-17T15:44:04.556Z,87.97
2018-01-17T15:46:30.589Z,88.10
2018-01-17T15:48:56.689Z,89.07
2018-01-17T15:51:22.729Z,88.22
2018-01-17T15:53:48.813Z,88.81
2018-01-17T15:56:14.860Z,90.00
2018-01-17T15:58:40.891Z,90.89
2018-01-17T16:01:06.939Z,91.96
2018-01-17T16:03:32.996Z,92.79
2018-01-17T16:05:59.172Z,93.24
2018-01-17T16:08:25.257Z,93.74
2018-01-17T16:10:51.298Z,93.66
2018-01-17T16:13:17.384Z,93.45
2018-01-17T16:15:43.484Z,92.84
2018-01-17T16:18:09.544Z,92.53
2018-01-17T16:20:35.581Z,92.09
2018-01-17T16:23:01.676Z,91.94
2018-01-17T16:25:27.735Z,91.72
2018-01-17T16:27:53.788Z,91.58
2018-01-17T16:30:19.848Z,91.27
2018-01-17T16:32:45.911Z,91.74
2018-01-17T16:35:11.987Z,91.49
2018-01-17T16:37:37.946Z,91.32
2018-01-17T16:40:04.092Z,91.41
2018-01-17T16:42:30.165Z,91.12
2018-01-17T16:44:56.178Z,91.12
2018-01-17T16:47:22.327Z,92.02
2018-01-17T16:49:48.391Z,92.04
2018-01-17T16:52:14.466Z,92.58
2018-01-17T16:54:40.633Z,92.91
2018-01-17T16:57:06.765Z,93.34
2018-01-17T16:59:32.901Z,93.12
2018-01-17T17:01:59.015Z,92.14
2018-01-17T17:04:25.101Z,92.58
2018-01-17T17:06:51.478Z,93.12
2018-01-17T17:09:17.587Z,92.95
2018-01-17T17:11:43.627Z,92.29
2018-01-17T17:14:09.686Z,91.16
2018-01-17T17:16:35.714Z,90.55
2018-01-17T17:19:01.756Z,90.33
2018-01-17T17:21:27.918Z,88.63
2018-01-17T17:23:53.944Z,89.28
2018-01-17T17:26:19.990Z,89.06
2018-01-17T17:28:46.045Z,88.43
2018-01-17T17:31:12.098Z,87.84
2018-01-17T17:33:38.112Z,88.27
2018-01-17T17:36:04.198Z,87.89
2018-01-17T17:38:30.220Z,88.57
2018-01-17T17:41:03.103Z,88.11
2018-01-17T17:43:29.193Z,88.49
2018-01-17T17:45:55.346Z,88.09
2018-01-17T17:48:21.404Z,88.82
2018-01-17T17:50:47.456Z,88.89
2018-01-17T17:53:13.465Z,88.29
2018-01-17T17:55:39.464Z,88.18
2018-01-17T17:58:05.472Z,88.14
2018-01-17T18:00:31.549Z,88.42
2018-01-17T18:02:57.536Z,88.42
2018-01-17T18:05:23.578Z,89.02
2018-01-17T18:07:49.619Z,88.80
2018-01-17T18:10:15.673Z,89.09
2018-01-17T18:12:41.769Z,89.92
2018-01-17T18:15:07.796Z,90.33
2018-01-17T18:17:33.939Z,91.17
2018-01-17T18:19:59.970Z,94.13
2018-01-17T18:22:26.048Z,94.44
2018-01-17T18:24:52.076Z,92.09
2018-01-17T18:27:18.184Z,92.32
2018-01-17T18:29:44.220Z,92.61
2018-01-17T18:32:10.277Z,93.12
2018-01-17T18:34:36.460Z,93.65
2018-01-17T18:37:02.528Z,93.51
2018-01-17T18:39:28.577Z,93.45
2018-01-17T18:41:54.708Z,93.49
2018-01-17T18:44:20.840Z,93.77
2018-01-17T18:46:46.960Z,93.74
2018-01-17T18:49:13.010Z,93.88
2018-01-17T18:51:39.114Z,93.79
2018-01-17T18:54:05.229Z,93.84
2018-01-17T18:56:31.753Z,93.71
2018-01-17T18:58:57.850Z,93.44
2018-01-17T19:01:23.941Z,93.13
2018-01-17T19:03:50.065Z,93.22
2018-01-17T19:06:16.143Z,93.87
2018-01-17T19:08:42.339Z,94.60
2018-01-17T19:11:08.471Z,95.01
2018-01-17T19:13:34.607Z,94.99
2018-01-17T19:16:01.750Z,94.37
2018-01-17T19:18:27.860Z,94.55
2018-01-17T19:20:55.149Z,94.28
2018-01-17T19:23:21.262Z,94.26
2018-01-17T19:25:47.410Z,94.52
2018-01-17T19:28:13.526Z,94.68
2018-01-17T19:30:39.786Z,94.46
2018-01-17T19:33:05.933Z,93.96
2018-01-17T19:35:32.065Z,94.24
2018-01-17T19:37:58.089Z,93.37
2018-01-17T19:40:24.202Z,93.02
2018-01-17T19:42:50.357Z,91.70
2018-01-17T19:45:16.394Z,91.15
2018-01-17T19:47:42.468Z,90.53
2018-01-17T19:50:08.559Z,89.39
2018-01-17T19:52:34.782Z,88.91
2018-01-17T19:55:00.901Z,87.44
2018-01-17T19:57:26.981Z,87.23
2018-01-17T19:59:53.093Z,87.77
2018-01-17T20:02:19.233Z,87.96
2018-01-17T20:04:45.400Z,88.85
2018-01-17T20:07:11.435Z,89.36
2018-01-17T20:09:37.473Z,89.64
2018-01-17T20:12:04.420Z,89.67
2018-01-17T20:14:30.460Z,90.51
2018-01-17T20:16:56.520Z,90.07
2018-01-17T20:19:22.473Z,89.33
2018-01-17T20:21:48.519Z,88.43
2018-01-17T20:24:14.552Z,88.31
2018-01-17T20:26:40.548Z,88.07
2018-01-17T20:29:06.572Z,88.21
2018-01-17T20:31:32.620Z,88.33
2018-01-17T20:33:58.615Z,87.18
2018-01-17T20:36:24.819Z,87.97
2018-01-17T20:38:50.931Z,87.75
2018-01-17T20:41:17.037Z,87.89
2018-01-17T20:43:50.073Z,87.16
2018-01-17T20:46:16.109Z,86.88
2018-01-17T20:48:42.069Z,87.45
2018-01-17T20:51:08.141Z,88.30
2018-01-17T20:53:34.196Z,88.37
2018-01-17T20:56:00.241Z,87.76
2018-01-17T20:58:26.251Z,87.63
2018-01-17T21:00:52.305Z,87.12
2018-01-17T21:03:18.300Z,87.09
2018-01-17T21:05:44.344Z,87.30
2018-01-17T21:08:10.305Z,87.03
2018-01-17T21:10:36.339Z,87.22
2018-01-17T21:13:02.382Z,86.94
2018-01-17T21:15:28.413Z,86.46
2018-01-17T21:17:54.453Z,86.52
2018-01-17T21:20:20.452Z,86.41
2018-01-17T21:22:46.509Z,86.90
2018-01-17T21:25:12.644Z,86.47
2018-01-17T21:27:38.636Z,86.01
2018-01-17T21:30:04.686Z,86.01
2018-01-17T21:32:30.716Z,86.24
2018-01-17T21:34:56.701Z,86.11
2018-01-17T21:37:22.776Z,86.36
2018-01-17T21:39:48.805Z,86.08
2018-01-17T21:42:20.793Z,86.58
2018-01-17T21:44:53.004Z,86.74
2018-01-17T21:47:18.998Z,86.32
2018-01-17T21:49:45.020Z,86.25
2018-01-17T21:52:11.196Z,86.54
2018-01-17T21:54:37.213Z,86.41
2018-01-17T21:57:03.250Z,86.04
2018-01-17T21:59:29.301Z,85.51
2018-01-17T22:01:55.313Z,86.46
2018-01-17T22:04:21.352Z,86.38
2018-01-17T22:06:47.460Z,85.89
2018-01-17T22:09:13.565Z,86.03
2018-01-17T22:11:39.570Z,85.92
2018-01-17T22:14:05.616Z,86.40
2018-01-17T22:16:31.600Z,86.54
2018-01-17T22:18:57.632Z,86.27
2018-01-17T22:21:23.771Z,86.30
2018-01-17T22:23:49.800Z,86.23
2018-01-17T22:26:15.811Z,86.92
2018-01-17T22:28:41.845Z,87.00
2018-01-17T22:31:07.840Z,87.18
2018-01-17T22:33:33.881Z,87.01
2018-01-17T22:35:59.862Z,86.51
2018-01-17T22:38:25.945Z,86.84
2018-01-17T22:40:51.892Z,86.24
2018-01-17T22:43:17.908Z,86.42
2018-01-17T22:45:43.924Z,86.84
2018-01-17T22:48:09.944Z,87.23
2018-01-17T22:50:35.997Z,87.47
2018-01-17T22:53:09.128Z,87.57
2018-01-17T22:55:35.255Z,87.68
2018-01-17T22:58:01.313Z,87.86
2018-01-17T23:00:27.344Z,88.04
2018-01-17T23:02:53.423Z,88.02
2018-01-17T23:05:19.395Z,88.11
2018-01-17T23:07:45.401Z,88.33
2018-01-17T23:10:11.409Z,88.37
2018-01-17T23:12:37.403Z,88.33
2018-01-17T23:15:03.640Z,88.42
2018-01-17T23:17:29.652Z,88.52
2018-01-17T23:19:55.648Z,88.51
2018-01-17T23:22:21.652Z,88.52
2018-01-17T23:24:47.644Z,88.29
2018-01-17T23:27:13.677Z,88.27
2018-01-17T23:29:39.677Z,88.17
2018-01-17T23:32:05.783Z,88.10
2018-01-17T23:34:31.857Z,87.88
2018-01-17T23:36:57.884Z,87.85
2018-01-17T23:39:23.900Z,87.89
2018-01-17T23:41:49.933Z,88.05
2018-01-17T23:44:15.942Z,87.61
2018-01-17T23:46:41.967Z,87.25
2018-01-17T23:49:08.019Z,87.19
2018-01-17T23:51:34.041Z,86.96
2018-01-17T23:54:00.062Z,86.94
2018-01-17T23:56:26.112Z,86.71
2018-01-17T23:58:52.555Z,86.65
